Time;durP1;ratioP1;P1;durP2;ratioP2;P2;SDS_P1;SDS_P2;PMS_P1;PMS_P2;Temp;Humidity;BMP_temperature;BMP_pressure;BME280_temperature;BME280_humidity;BME280_pressure;Samples;Min_cycle;Max_cycle;Signal;HPM_P1;HPM_P2
2022/11/22 00:01:24;;;;;;;0.60;0.60;;;;;;;8.39;99.18;98820.50;5115895;27;20190;-63
2022/11/22 00:03:51;;;;;;;0.60;0.60;;;;;;;8.32;98.95;98808.81;5112818;27;20195;-63
2022/11/22 00:06:18;;;;;;;0.60;0.60;;;;;;;8.33;98.88;98814.75;5110993;28;20218;-63
2022/11/22 00:08:44;;;;;;;0.60;0.60;;;;;;;8.32;97.97;98818.19;5117620;28;20194;-63
2022/11/22 00:11:12;;;;;;;0.50;0.50;;;;;;;8.29;98.22;98824.22;5128078;27;20191;-64
2022/11/22 00:13:41;;;;;;;0.60;0.60;;;;;;;8.28;97.55;98827.66;5122949;27;20220;-63
2022/11/22 00:16:08;;;;;;;0.60;0.60;;;;;;;8.29;98.19;98818.28;5123988;27;20654;-63
2022/11/22 00:18:35;;;;;;;0.50;0.50;;;;;;;8.27;97.72;98817.47;5114710;27;20298;-63
2022/11/22 00:21:05;;;;;;;0.57;0.57;;;;;;;8.27;97.44;98820.81;5113717;28;20210;-64
2022/11/22 00:23:32;;;;;;;0.40;0.40;;;;;;;8.21;97.98;98821.00;5113920;28;20308;-63
2022/11/22 00:25:59;;;;;;;0.60;0.60;;;;;;;8.17;98.34;98819.47;5114417;28;20199;-63
2022/11/22 00:28:27;;;;;;;0.70;0.70;;;;;;;8.14;97.87;98822.06;5113914;28;20187;-63
2022/11/22 00:30:54;;;;;;;0.60;0.60;;;;;;;8.08;98.19;98814.59;5113456;27;20199;-63
2022/11/22 00:33:20;;;;;;;0.57;0.57;;;;;;;8.06;97.29;98826.59;5123824;27;20636;-63
2022/11/22 00:35:47;;;;;;;0.70;0.70;;;;;;;8.06;97.04;98829.13;5112465;27;20722;-63
2022/11/22 00:38:14;;;;;;;0.60;0.60;;;;;;;8.01;97.36;98836.09;5112703;28;20576;-63
2022/11/22 00:40:41;;;;;;;0.60;0.60;;;;;;;8.00;97.92;98836.97;5113521;28;20260;-63
2022/11/22 00:43:07;;;;;;;0.63;0.63;;;;;;;7.98;97.98;98837.91;5121880;27;20195;-63
2022/11/22 00:45:36;;;;;;;0.50;0.50;;;;;;;7.77;97.96;98819.75;5112858;28;20252;-63
2022/11/22 00:48:02;;;;;;;0.57;0.57;;;;;;;7.85;97.25;98839.97;5122199;27;20202;-63
2022/11/22 00:50:29;;;;;;;0.60;0.60;;;;;;;7.84;97.48;98845.94;5112678;28;20191;-63
2022/11/22 00:52:56;;;;;;;0.50;0.50;;;;;;;7.82;98.14;98847.69;5120792;27;20194;-63
2022/11/22 00:55:23;;;;;;;0.60;0.60;;;;;;;7.81;97.28;98851.13;5113687;27;20199;-63
2022/11/22 00:57:50;;;;;;;0.50;0.50;;;;;;;7.80;97.20;98850.28;5114589;27;20198;-63
2022/11/22 01:00:17;;;;;;;0.50;0.50;;;;;;;7.76;97.25;98852.97;5121798;27;20677;-63
2022/11/22 01:02:45;;;;;;;1.60;1.50;;;;;;;7.66;98.34;98856.63;5132348;27;20626;-63
2022/11/22 01:05:12;;;;;;;0.50;0.50;;;;;;;7.67;98.10;98856.59;5112664;27;20214;-63
2022/11/22 01:07:39;;;;;;;0.60;0.60;;;;;;;7.62;98.54;98845.72;5112253;28;20612;-63
2022/11/22 01:10:06;;;;;;;0.60;0.60;;;;;;;7.60;98.75;98846.59;5122594;27;20194;-63
2022/11/22 01:12:33;;;;;;;0.80;0.80;;;;;;;7.60;98.81;98851.69;5116091;27;20210;-62
2022/11/22 01:15:00;;;;;;;0.50;0.50;;;;;;;7.50;98.91;98832.41;5112783;27;20199;-63
2022/11/22 01:17:31;;;;;;;0.50;0.50;;;;;;;7.56;99.16;98855.25;5117250;27;20720;-64
2022/11/22 01:19:59;;;;;;;0.60;0.60;;;;;;;7.63;98.25;98856.72;5115368;27;20211;-63
2022/11/22 01:22:26;;;;;;;0.70;0.70;;;;;;;7.61;98.51;98853.38;5113164;27;20213;-63
2022/11/22 01:24:53;;;;;;;0.77;0.77;;;;;;;7.62;98.21;98857.63;5113697;27;20260;-63
2022/11/22 01:27:19;;;;;;;0.60;0.60;;;;;;;7.60;98.43;98855.09;5112912;28;20203;-63
2022/11/22 01:29:46;;;;;;;0.60;0.60;;;;;;;7.55;98.34;98854.41;5113349;27;20775;-63
2022/11/22 01:32:13;;;;;;;0.53;0.53;;;;;;;7.62;97.75;98855.91;5119356;27;20242;-63
2022/11/22 01:34:40;;;;;;;0.57;0.57;;;;;;;7.63;97.52;98841.41;5114643;27;20206;-64
2022/11/22 01:37:08;;;;;;;0.70;0.70;;;;;;;7.63;97.82;98838.84;5114603;27;20206;-64
2022/11/22 01:39:35;;;;;;;1.07;1.07;;;;;;;7.55;98.60;98840.81;5120076;27;20283;-63
2022/11/22 01:42:01;;;;;;;0.60;0.60;;;;;;;7.55;98.22;98833.16;5113877;27;20666;-64
2022/11/22 01:44:29;;;;;;;0.70;0.70;;;;;;;7.54;97.90;98828.91;5124590;27;20248;-63
2022/11/22 01:46:59;;;;;;;0.67;0.67;;;;;;;7.53;97.92;98820.44;5112110;28;20195;-63
2022/11/22 01:49:29;;;;;;;0.60;0.60;;;;;;;7.48;98.40;98821.44;5128315;27;20197;-64
2022/11/22 01:52:01;;;;;;;1.13;1.13;;;;;;;7.48;98.22;98822.28;5132370;27;20275;-63
2022/11/22 01:54:34;;;;;;;0.60;0.60;;;;;;;7.46;98.21;98823.19;5128517;27;20244;-64
2022/11/22 01:57:05;;;;;;;0.70;0.70;;;;;;;7.39;98.97;98825.06;5115094;27;20199;-64
2022/11/22 01:59:35;;;;;;;0.80;0.80;;;;;;;7.39;99.04;98828.47;5115222;27;20658;-64
2022/11/22 02:02:02;;;;;;;0.40;0.40;;;;;;;7.33;99.24;98813.31;5113069;27;20230;-65
2022/11/22 02:04:32;;;;;;;0.70;0.70;;;;;;;7.26;99.67;98816.91;5123956;27;20198;-64
2022/11/22 02:07:07;;;;;;;0.63;0.63;;;;;;;7.23;100.00;98823.81;5113241;27;20628;-63
2022/11/22 02:09:37;;;;;;;0.73;0.73;;;;;;;7.03;100.00;98819.22;5111490;28;20246;-64
2022/11/22 02:12:06;;;;;;;0.60;0.60;;;;;;;6.97;100.00;98827.00;5111453;28;20199;-64
2022/11/22 02:14:34;;;;;;;0.50;0.50;;;;;;;6.92;100.00;98826.28;5113433;27;20202;-63
2022/11/22 02:17:01;;;;;;;0.50;0.50;;;;;;;6.94;100.00;98821.16;5120621;27;20202;-64
2022/11/22 02:19:39;;;;;;;0.53;0.53;;;;;;;6.99;100.00;98827.81;5116875;27;20329;-63
2022/11/22 02:22:16;;;;;;;0.60;0.60;;;;;;;7.00;100.00;98829.50;5114329;27;20356;-63
2022/11/22 02:24:51;;;;;;;1.07;1.07;;;;;;;7.00;100.00;98838.84;5116269;27;20193;-63
2022/11/22 02:27:20;;;;;;;0.60;0.60;;;;;;;6.93;100.00;98829.66;5120851;27;20221;-63
2022/11/22 02:29:46;;;;;;;0.60;0.60;;;;;;;6.86;100.00;98840.00;5119503;27;20191;-63
2022/11/22 02:32:13;;;;;;;0.60;0.60;;;;;;;6.87;100.00;98835.75;5115415;27;20206;-64
2022/11/22 02:34:44;;;;;;;0.60;0.60;;;;;;;6.88;100.00;98839.16;5109565;28;20209;-62
2022/11/22 02:37:14;;;;;;;0.77;0.77;;;;;;;6.86;100.00;98831.53;5116171;27;20194;-62
2022/11/22 02:39:44;;;;;;;0.70;0.70;;;;;;;6.88;100.00;98830.59;5110829;28;20226;-63
2022/11/22 02:42:11;;;;;;;0.60;0.60;;;;;;;6.91;100.00;98845.00;5116767;27;20202;-63
2022/11/22 02:44:41;;;;;;;0.77;0.77;;;;;;;6.82;100.00;98824.81;5117540;27;20201;-63
2022/11/22 02:47:08;;;;;;;0.77;0.77;;;;;;;6.91;100.00;98845.00;5111119;28;20199;-63
2022/11/22 02:49:34;;;;;;;0.63;0.63;;;;;;;6.88;100.00;98845.88;5111152;28;20667;-63
2022/11/22 02:52:01;;;;;;;0.50;0.50;;;;;;;6.84;100.00;98844.31;5123570;27;20251;-63
2022/11/22 02:54:28;;;;;;;0.50;0.50;;;;;;;6.83;100.00;98855.38;5110795;28;20202;-62
2022/11/22 02:56:54;;;;;;;0.60;0.60;;;;;;;6.83;100.00;98857.91;5110868;28;20661;-63
2022/11/22 02:59:21;;;;;;;0.63;0.63;;;;;;;6.84;100.00;98858.75;5117169;27;20211;-63
2022/11/22 03:01:49;;;;;;;0.50;0.50;;;;;;;6.79;100.00;98863.09;5110401;28;20206;-64
2022/11/22 03:04:24;;;;;;;0.40;0.40;;;;;;;6.76;100.00;98863.19;5118262;27;20194;-63
2022/11/22 03:06:52;;;;;;;0.50;0.50;;;;;;;6.76;100.00;98866.56;5116893;27;20718;-62
2022/11/22 03:09:19;;;;;;;0.57;0.57;;;;;;;6.74;100.00;98867.47;5113394;28;20190;-63
2022/11/22 03:11:46;;;;;;;0.63;0.63;;;;;;;6.70;100.00;98865.88;5122473;27;20214;-63
2022/11/22 03:14:13;;;;;;;0.70;0.70;;;;;;;6.59;100.00;98860.22;5122007;28;20298;-63
2022/11/22 03:16:40;;;;;;;0.60;0.60;;;;;;;6.56;100.00;98857.72;5110366;28;20201;-63
2022/11/22 03:19:08;;;;;;;0.70;0.70;;;;;;;6.55;100.00;98866.22;5110206;28;20589;-63
2022/11/22 03:21:35;;;;;;;0.50;0.50;;;;;;;6.46;100.00;98866.44;5110796;28;20555;-62
2022/11/22 03:24:02;;;;;;;0.57;0.57;;;;;;;6.43;100.00;98861.41;5110994;28;20658;-63
2022/11/22 03:26:29;;;;;;;0.60;0.60;;;;;;;6.46;100.00;98871.53;5112322;28;20209;-63
2022/11/22 03:28:56;;;;;;;0.60;0.60;;;;;;;6.46;100.00;98871.53;5111101;28;20259;-63
2022/11/22 03:31:22;;;;;;;0.73;0.73;;;;;;;6.40;100.00;98876.75;5109787;28;20205;-63
2022/11/22 03:33:49;;;;;;;0.57;0.57;;;;;;;6.37;100.00;98872.56;5116493;28;20201;-62
2022/11/22 03:36:18;;;;;;;0.60;0.60;;;;;;;6.23;100.00;98855.06;5119930;27;20202;-63
2022/11/22 03:38:44;;;;;;;0.60;0.60;;;;;;;6.34;100.00;98868.38;5112427;27;20658;-63
2022/11/22 03:41:11;;;;;;;0.50;0.50;;;;;;;6.37;100.00;98862.38;5110910;28;20632;-63
2022/11/22 03:43:38;;;;;;;0.60;0.60;;;;;;;6.36;100.00;98870.91;5111117;28;20203;-63
2022/11/22 03:46:05;;;;;;;0.87;0.87;;;;;;;6.33;100.00;98871.78;5131495;27;20661;-64
2022/11/22 03:48:32;;;;;;;0.60;0.60;;;;;;;6.18;100.00;98851.75;5133399;27;20202;-63
2022/11/22 03:51:04;;;;;;;0.73;0.73;;;;;;;6.28;100.00;98873.59;5128440;27;20199;-63
2022/11/22 03:53:33;;;;;;;0.60;0.60;;;;;;;6.25;100.00;98873.66;5130449;27;20757;-63
2022/11/22 03:56:00;;;;;;;1.53;1.00;;;;;;;6.20;100.00;98880.53;5125433;27;20194;-63
2022/11/22 03:58:26;;;;;;;0.60;0.60;;;;;;;6.12;100.00;98877.34;5128220;27;20662;-63
2022/11/22 04:00:53;;;;;;;1.13;1.03;;;;;;;6.10;100.00;98874.00;5115979;27;20275;-63
2022/11/22 04:03:20;;;;;;;0.50;0.50;;;;;;;6.16;100.00;98884.03;5127983;27;20258;-63
2022/11/22 04:05:47;;;;;;;0.60;0.60;;;;;;;6.07;100.00;98873.22;5124811;27;20229;-62
2022/11/22 04:08:14;;;;;;;0.60;0.60;;;;;;;6.15;100.00;98886.59;5126834;27;20229;-63
2022/11/22 04:10:42;;;;;;;0.63;0.63;;;;;;;6.14;100.00;98890.03;5118013;27;20195;-63
2022/11/22 04:13:09;;;;;;;9.60;2.97;;;;;;;6.19;100.00;98889.06;5116616;27;20207;-63
2022/11/22 04:15:36;;;;;;;0.60;0.60;;;;;;;6.13;100.00;98884.09;5119532;27;20626;-63
2022/11/22 04:18:03;;;;;;;0.70;0.70;;;;;;;6.24;100.00;98888.97;5115294;27;20198;-62
2022/11/22 04:23:18;;;;;;;0.70;0.70;;;;;;;6.25;100.00;98891.47;5125781;27;20210;-63
2022/11/22 04:25:46;;;;;;;0.70;0.70;;;;;;;6.24;100.00;98894.88;5117169;27;20210;-62
2022/11/22 04:28:14;;;;;;;0.70;0.70;;;;;;;6.25;100.00;98896.56;5112182;28;20680;-63
2022/11/22 04:33:26;;;;;;;0.60;0.60;;;;;;;6.18;100.00;98871.28;5117958;27;20266;-63
2022/11/22 04:35:54;;;;;;;1.33;1.33;;;;;;;6.40;100.00;98897.13;5133870;27;20202;-62
2022/11/22 04:38:21;;;;;;;0.50;0.50;;;;;;;6.43;100.00;98912.34;5125096;27;20246;-63
2022/11/22 04:40:50;;;;;;;0.73;0.73;;;;;;;6.38;100.00;98914.13;5118459;27;20211;-63
2022/11/22 04:46:05;;;;;;;0.53;0.53;;;;;;;6.46;100.00;98918.22;5115245;27;20213;-63
2022/11/22 04:48:31;;;;;;;0.50;0.50;;;;;;;6.53;100.00;98924.81;5112645;27;20210;-62
2022/11/22 04:53:43;;;;;;;0.67;0.67;;;;;;;6.61;100.00;98938.25;5109583;27;20212;-63
2022/11/22 04:56:11;;;;;;;0.80;0.80;;;;;;;6.59;100.00;98941.69;5118423;27;20293;-62
2022/11/22 04:58:38;;;;;;;0.70;0.70;;;;;;;6.58;100.00;98937.47;5133514;27;20262;-62
2022/11/22 05:01:05;;;;;;;0.70;0.70;;;;;;;6.60;100.00;98951.00;5133632;27;20574;-63
2022/11/22 05:03:32;;;;;;;1.03;1.03;;;;;;;6.56;100.00;98950.22;5129218;27;20202;-62
2022/11/22 05:06:01;;;;;;;0.80;0.80;;;;;;;6.55;100.00;98950.25;5118607;27;20222;-62
2022/11/22 05:08:28;;;;;;;0.60;0.60;;;;;;;6.55;100.00;98953.66;5128301;27;20194;-63
2022/11/22 05:10:58;;;;;;;0.70;0.70;;;;;;;6.56;100.00;98970.59;5120392;27;20202;-62
2022/11/22 05:13:28;;;;;;;0.60;0.60;;;;;;;6.55;100.00;98978.28;5112534;28;20199;-63
2022/11/22 05:15:56;;;;;;;0.60;0.60;;;;;;;6.45;100.00;98974.22;5125370;27;20625;-63
2022/11/22 05:18:25;;;;;;;0.80;0.80;;;;;;;6.46;100.00;98979.31;5128438;27;20194;-63
2022/11/22 05:20:52;;;;;;;1.10;1.10;;;;;;;6.37;100.00;98948.91;5125472;27;20267;-63
2022/11/22 05:26:16;;;;;;;1.27;1.27;;;;;;;6.54;100.00;98966.41;5087890;28;20206;-62
2022/11/22 05:28:44;;;;;;;0.60;0.60;;;;;;;6.52;100.00;98979.19;5108455;27;20207;-62
2022/11/22 05:31:15;;;;;;;0.80;0.80;;;;;;;6.50;100.00;98977.50;5113739;27;20578;-63
2022/11/22 05:33:43;;;;;;;0.97;0.97;;;;;;;6.58;100.00;98984.16;5105617;27;20194;-63
2022/11/22 05:36:11;;;;;;;0.70;0.70;;;;;;;6.60;100.00;98989.19;5109551;27;20199;-63
2022/11/22 05:38:38;;;;;;;0.60;0.60;;;;;;;6.63;100.00;99001.84;5130259;27;20194;-63
2022/11/22 05:41:07;;;;;;;0.70;0.70;;;;;;;6.48;100.00;98986.91;5113694;27;20231;-63
2022/11/22 05:43:36;;;;;;;0.60;0.60;;;;;;;6.65;100.00;99005.22;5119834;27;20205;-63
2022/11/22 05:46:10;;;;;;;0.70;0.70;;;;;;;6.74;100.00;99010.13;5122919;27;20202;-63
2022/11/22 05:48:38;;;;;;;0.60;0.60;;;;;;;6.69;100.00;99011.91;5124174;27;20195;-63
2022/11/22 05:51:06;;;;;;;0.63;0.63;;;;;;;6.70;100.00;99014.44;5111567;27;20443;-63
2022/11/22 05:53:33;;;;;;;0.60;0.60;;;;;;;6.81;100.00;99022.72;5112399;27;20206;-63
2022/11/22 05:56:04;;;;;;;0.90;0.90;;;;;;;6.86;100.00;99018.34;5114573;27;20681;-63
2022/11/22 05:58:30;;;;;;;0.60;0.60;;;;;;;6.95;100.00;99024.94;5118530;27;20202;-63
2022/11/22 06:01:03;;;;;;;0.40;0.40;;;;;;;6.97;100.00;99028.31;5110388;28;20605;-63
2022/11/22 06:03:31;;;;;;;0.50;0.50;;;;;;;7.03;100.00;99033.28;5111586;28;20201;-63
2022/11/22 06:05:58;;;;;;;0.77;0.77;;;;;;;7.06;100.00;99033.22;5120799;27;20221;-64
2022/11/22 06:08:24;;;;;;;0.63;0.63;;;;;;;7.10;100.00;99039.91;5120128;27;20908;-63
2022/11/22 06:10:51;;;;;;;0.60;0.60;;;;;;;7.15;100.00;99045.75;5108358;28;20198;-62
2022/11/22 06:13:18;;;;;;;0.60;0.60;;;;;;;7.19;100.00;99043.97;5107915;27;20734;-63
2022/11/22 06:15:45;;;;;;;0.60;0.60;;;;;;;7.30;100.00;99040.28;5112239;27;20202;-62
2022/11/22 06:18:12;;;;;;;0.70;0.70;;;;;;;7.36;99.79;99036.78;5117809;27;20681;-62
2022/11/22 06:20:40;;;;;;;0.60;0.60;;;;;;;7.42;99.78;99040.91;5110217;27;20211;-62
2022/11/22 06:23:06;;;;;;;0.60;0.60;;;;;;;7.46;99.82;99028.06;5112364;27;20206;-62
2022/11/22 06:25:33;;;;;;;0.80;0.80;;;;;;;7.51;99.81;99033.03;5116856;27;20219;-63
2022/11/22 06:28:00;;;;;;;0.60;0.60;;;;;;;7.57;100.00;99045.63;5110773;27;20646;-63
2022/11/22 06:30:27;;;;;;;0.57;0.57;;;;;;;7.49;99.85;99027.13;5108754;27;20249;-62
2022/11/22 06:32:54;;;;;;;0.70;0.70;;;;;;;7.59;100.00;99038.78;5107815;27;20294;-63
2022/11/22 06:35:20;;;;;;;0.63;0.63;;;;;;;7.60;100.00;99035.34;5114905;27;20207;-62
2022/11/22 06:37:50;;;;;;;0.57;0.57;;;;;;;7.66;99.54;99040.31;5107061;27;20210;-63
2022/11/22 06:40:17;;;;;;;0.60;0.60;;;;;;;7.67;99.87;99039.44;5106474;28;20214;-63
2022/11/22 06:42:44;;;;;;;0.53;0.53;;;;;;;7.73;99.31;99036.72;5111954;27;20205;-62
2022/11/22 06:45:12;;;;;;;0.43;0.43;;;;;;;7.57;99.94;99030.31;5113137;27;20303;-62
2022/11/22 06:47:38;;;;;;;0.70;0.70;;;;;;;7.77;99.71;99058.75;5109124;27;20631;-62
2022/11/22 06:50:06;;;;;;;0.60;0.60;;;;;;;7.83;99.58;99069.66;5109844;27;20195;-62
2022/11/22 06:52:33;;;;;;;0.50;0.50;;;;;;;7.84;98.91;99071.34;5112651;27;20217;-62
2022/11/22 06:55:01;;;;;;;0.50;0.50;;;;;;;7.90;99.00;99058.41;5114940;27;20217;-62
2022/11/22 06:57:27;;;;;;;0.63;0.63;;;;;;;7.90;97.96;99047.38;5117681;27;20626;-62
2022/11/22 06:59:54;;;;;;;0.80;0.80;;;;;;;7.99;97.51;99048.84;5112904;27;20202;-62
2022/11/22 07:02:21;;;;;;;0.60;0.60;;;;;;;7.98;97.75;99058.22;5116974;27;20195;-62
2022/11/22 07:04:48;;;;;;;0.70;0.70;;;;;;;8.05;97.15;99057.19;5116345;28;20613;-62
2022/11/22 07:07:15;;;;;;;0.70;0.70;;;;;;;8.25;96.53;99067.72;5118140;27;20255;-62
2022/11/22 07:09:41;;;;;;;0.60;0.60;;;;;;;8.27;96.70;99080.47;5118246;27;20198;-62
2022/11/22 07:12:10;;;;;;;0.97;0.97;;;;;;;8.12;96.53;99029.78;5122551;28;20603;-62
2022/11/22 07:14:36;;;;;;;0.57;0.57;;;;;;;8.40;96.64;99077.56;5115412;27;20203;-62
2022/11/22 07:17:03;;;;;;;0.70;0.70;;;;;;;8.50;96.59;99069.69;5119947;28;20194;-62
2022/11/22 07:19:31;;;;;;;0.57;0.57;;;;;;;8.57;95.71;99073.72;5116351;28;20213;-62
2022/11/22 07:21:59;;;;;;;0.70;0.70;;;;;;;8.60;95.59;99081.28;5113033;27;20312;-60
2022/11/22 07:24:25;;;;;;;0.50;0.50;;;;;;;8.65;95.71;99074.34;5123060;27;20650;-63
2022/11/22 07:26:52;;;;;;;0.90;0.90;;;;;;;8.70;95.30;99078.47;5128963;27;20251;-62
2022/11/22 07:29:20;;;;;;;0.57;0.57;;;;;;;8.79;95.33;99074.78;5122139;27;20262;-62
2022/11/22 07:31:47;;;;;;;0.70;0.70;;;;;;;8.87;95.23;99078.00;5123432;27;20596;-62
2022/11/22 07:34:14;;;;;;;0.60;0.60;;;;;;;8.96;94.58;99072.59;5121710;27;20206;-62
2022/11/22 07:36:40;;;;;;;0.50;0.50;;;;;;;9.05;94.30;99076.63;5118911;27;20195;-62
2022/11/22 07:39:07;;;;;;;0.73;0.73;;;;;;;9.22;93.57;99070.13;5123126;27;20247;-62
2022/11/22 07:41:34;;;;;;;0.50;0.50;;;;;;;9.36;93.46;99073.13;5116823;27;21178;-61
2022/11/22 07:44:01;;;;;;;0.40;0.40;;;;;;;9.53;93.26;99064.09;5121210;27;20304;-63
2022/11/22 07:46:31;;;;;;;0.60;0.60;;;;;;;9.70;92.33;99061.81;5127832;27;20201;-62
2022/11/22 07:48:59;;;;;;;0.40;0.40;;;;;;;9.88;91.40;99061.22;5119472;27;20198;-62
2022/11/22 07:51:27;;;;;;;0.70;0.70;;;;;;;10.03;89.58;99053.03;5121687;27;20687;-62
2022/11/22 07:53:54;;;;;;;0.50;0.50;;;;;;;10.16;89.80;99061.16;5118323;27;20704;-62
2022/11/22 07:56:21;;;;;;;0.67;0.67;;;;;;;10.35;89.75;99057.94;5117826;27;20202;-61
2022/11/22 07:58:48;;;;;;;0.40;0.40;;;;;;;10.51;89.53;99053.94;5125655;27;20250;-64
2022/11/22 08:01:16;;;;;;;0.40;0.40;;;;;;;10.67;88.10;99053.38;5124218;27;20215;-64
2022/11/22 08:03:45;;;;;;;0.50;0.50;;;;;;;10.79;87.27;99047.84;5128569;27;20247;-62
2022/11/22 08:06:14;;;;;;;0.50;0.50;;;;;;;10.94;86.01;99053.22;5124578;27;20291;-62
2022/11/22 08:08:41;;;;;;;0.50;0.50;;;;;;;11.06;85.49;99051.94;5125271;27;20588;-62
2022/11/22 08:11:08;;;;;;;0.47;0.47;;;;;;;11.11;83.40;99039.78;5124607;27;20246;-61
2022/11/22 08:13:35;;;;;;;0.40;0.40;;;;;;;11.31;83.62;99047.53;5127688;27;20550;-62
2022/11/22 08:16:04;;;;;;;0.60;0.60;;;;;;;11.38;82.83;99054.09;5130404;27;20194;-62
2022/11/22 08:18:31;;;;;;;0.43;0.43;;;;;;;11.34;82.54;99047.41;5123592;27;20199;-62
2022/11/22 08:21:07;;;;;;;0.50;0.50;;;;;;;11.60;82.43;99078.03;5118532;27;20666;-62
2022/11/22 08:23:35;;;;;;;0.50;0.50;;;;;;;11.75;80.49;99073.22;5125046;27;20546;-62
2022/11/22 08:26:02;;;;;;;0.40;0.40;;;;;;;11.87;79.17;99052.19;5123097;27;20650;-62
2022/11/22 08:28:28;;;;;;;0.50;0.50;;;;;;;12.00;78.96;99058.47;5119742;27;20708;-62
2022/11/22 08:31:07;;;;;;;0.60;0.60;;;;;;;12.11;78.95;99061.47;5125907;27;20202;-63
2022/11/22 08:33:34;;;;;;;0.60;0.60;;;;;;;12.20;77.48;99060.22;5114638;27;20796;-67
2022/11/22 08:36:01;;;;;;;0.57;0.57;;;;;;;12.34;76.63;99045.88;5115011;27;20198;-62
2022/11/22 08:38:29;;;;;;;0.50;0.50;;;;;;;12.47;74.02;99041.88;5116470;27;20199;-63
2022/11/22 08:40:57;;;;;;;0.47;0.47;;;;;;;12.55;74.62;99032.09;5128986;27;20601;-63
2022/11/22 08:43:24;;;;;;;0.60;0.60;;;;;;;12.59;74.22;99028.50;5125693;27;20193;-63
2022/11/22 08:45:54;;;;;;;0.50;0.50;;;;;;;12.57;73.40;98999.44;5117664;27;20203;-63
2022/11/22 08:48:21;;;;;;;1.33;1.23;;;;;;;12.72;73.47;99020.25;5118741;27;20195;-62
2022/11/22 08:50:50;;;;;;;0.50;0.50;;;;;;;12.80;72.79;99011.25;5125717;27;20216;-62
2022/11/22 08:53:17;;;;;;;0.87;0.87;;;;;;;12.98;73.82;99005.31;5121977;27;20205;-61
2022/11/22 08:55:45;;;;;;;0.40;0.40;;;;;;;13.07;73.04;99004.03;5128982;27;20217;-63
2022/11/22 08:58:12;;;;;;;0.60;0.60;;;;;;;12.96;72.62;98990.81;5128817;27;20194;-64
2022/11/22 09:00:39;;;;;;;0.50;0.50;;;;;;;12.85;72.33;98993.06;5116482;27;20207;-66
2022/11/22 09:03:06;;;;;;;0.50;0.50;;;;;;;12.71;71.45;98995.41;5116347;27;20199;-64
2022/11/22 09:05:32;;;;;;;0.57;0.57;;;;;;;12.72;71.97;98992.78;5116609;27;20226;-61
2022/11/22 09:08:00;;;;;;;1.07;1.07;;;;;;;12.77;72.27;98990.81;5127696;27;20685;-61
2022/11/22 09:10:27;;;;;;;0.73;0.73;;;;;;;12.83;72.95;98994.84;5116827;27;20277;-61
2022/11/22 09:12:55;;;;;;;0.93;0.93;;;;;;;12.94;73.67;98982.34;5113421;27;20206;-61
2022/11/22 09:15:22;;;;;;;0.50;0.50;;;;;;;12.95;71.83;98989.16;5117475;27;20259;-61
2022/11/22 09:17:49;;;;;;;0.40;0.40;;;;;;;13.10;72.36;98983.31;5116519;27;20198;-62
2022/11/22 09:20:16;;;;;;;0.60;0.60;;;;;;;13.18;72.72;98976.09;5123729;27;20674;-61
2022/11/22 09:22:43;;;;;;;0.57;0.57;;;;;;;13.25;72.11;98972.31;5122804;27;20222;-61
2022/11/22 09:25:10;;;;;;;0.60;0.60;;;;;;;13.37;71.78;98966.59;5117784;27;20206;-61
2022/11/22 09:27:37;;;;;;;0.50;0.50;;;;;;;13.45;69.90;98974.75;5125564;27;20202;-62
2022/11/22 09:30:06;;;;;;;1.50;1.50;;;;;;;13.58;68.91;98980.13;5128166;27;20206;-62
2022/11/22 09:32:33;;;;;;;0.50;0.50;;;;;;;13.66;69.26;98978.88;5119825;27;20248;-61
2022/11/22 09:34:59;;;;;;;0.30;0.30;;;;;;;13.61;66.89;98970.53;5126497;27;20255;-62
2022/11/22 09:37:26;;;;;;;0.50;0.50;;;;;;;13.62;65.24;98967.06;5123106;27;20673;-60
2022/11/22 09:39:53;;;;;;;0.50;0.50;;;;;;;13.70;66.54;98968.41;5116299;27;20202;-60
2022/11/22 09:42:44;;;;;;;0.50;0.50;;;;;;;13.74;66.29;98969.91;5120477;27;20210;-63
2022/11/22 09:45:37;;;;;;;0.50;0.50;;;;;;;13.91;68.98;98973.31;5117858;27;20236;-60
2022/11/22 09:48:16;;;;;;;0.50;0.50;;;;;;;14.01;66.75;98973.69;5125414;27;20196;-60
2022/11/22 09:50:51;;;;;;;0.50;0.50;;;;;;;14.02;66.59;98980.53;5124319;27;20201;-61
2022/11/22 09:53:22;;;;;;;0.40;0.40;;;;;;;14.09;67.05;98992.16;5122612;27;20194;-62
2022/11/22 09:55:53;;;;;;;0.50;0.50;;;;;;;14.12;67.26;98989.44;5121700;27;20198;-61
2022/11/22 09:58:28;;;;;;;0.60;0.60;;;;;;;13.99;66.63;98996.13;5118078;27;20284;-61
2022/11/22 10:01:02;;;;;;;0.40;0.40;;;;;;;14.00;67.36;98987.47;5123256;27;20727;-61
2022/11/22 10:03:40;;;;;;;0.80;0.80;;;;;;;13.96;68.78;98975.66;5118631;27;20565;-61
2022/11/22 10:06:14;;;;;;;0.33;0.33;;;;;;;13.95;68.78;98977.41;5120929;27;20238;-61
2022/11/22 10:08:48;;;;;;;0.57;0.57;;;;;;;13.97;68.22;98974.75;5115081;27;20245;-64
2022/11/22 10:11:25;;;;;;;0.47;0.47;;;;;;;13.88;67.89;98964.91;5113280;27;20206;-64
2022/11/22 10:13:58;;;;;;;0.47;0.47;;;;;;;13.82;68.65;98960.91;5113574;27;20259;-62
2022/11/22 10:16:33;;;;;;;0.43;0.43;;;;;;;13.88;68.00;98952.88;5116449;27;20203;-61
2022/11/22 10:19:04;;;;;;;0.50;0.50;;;;;;;13.92;68.94;98953.53;5118823;27;20201;-62
2022/11/22 10:21:31;;;;;;;0.40;0.40;;;;;;;14.06;69.88;98949.34;5117507;27;20270;-62
2022/11/22 10:23:58;;;;;;;0.33;0.33;;;;;;;14.05;67.95;98939.97;5115619;27;20211;-61
2022/11/22 10:26:27;;;;;;;0.50;0.50;;;;;;;14.08;68.43;98938.97;5113490;27;20213;-61
2022/11/22 10:29:05;;;;;;;0.47;0.47;;;;;;;13.94;67.74;98933.69;5112501;27;20612;-61
2022/11/22 10:31:43;;;;;;;0.43;0.43;;;;;;;13.85;67.80;98941.88;5116428;27;20203;-61
2022/11/22 10:34:18;;;;;;;0.30;0.30;;;;;;;13.90;69.53;98945.03;5123654;27;20190;-61
2022/11/22 10:36:50;;;;;;;0.60;0.60;;;;;;;14.00;69.34;98952.25;5124225;27;20202;-61
2022/11/22 10:39:49;;;;;;;0.40;0.40;;;;;;;14.02;70.16;98952.97;5115521;27;20247;-62
2022/11/22 10:42:32;;;;;;;0.60;0.60;;;;;;;14.03;69.22;98946.09;5117766;27;20305;-61
2022/11/22 10:45:05;;;;;;;0.37;0.37;;;;;;;14.17;69.24;98959.94;5114069;27;20199;-61
2022/11/22 10:47:45;;;;;;;0.50;0.50;;;;;;;14.11;67.47;98949.13;5119802;27;20198;-61
2022/11/22 10:50:19;;;;;;;0.50;0.50;;;;;;;14.23;66.19;98953.63;5117042;27;20198;-62
2022/11/22 10:52:58;;;;;;;0.40;0.40;;;;;;;14.25;66.40;98951.00;5122842;27;20206;-62
2022/11/22 10:55:45;;;;;;;0.50;0.50;;;;;;;14.22;66.98;98936.50;5119469;27;20198;-62
2022/11/22 10:58:21;;;;;;;0.40;0.40;;;;;;;14.17;67.36;98923.84;5120054;27;20247;-62
2022/11/22 11:00:55;;;;;;;0.40;0.40;;;;;;;14.08;66.39;98902.88;5111466;28;20200;-63
2022/11/22 11:03:30;;;;;;;0.50;0.50;;;;;;;14.11;66.89;98900.16;5122724;27;20202;-62
2022/11/22 11:06:05;;;;;;;0.50;0.50;;;;;;;14.13;67.18;98916.34;5107067;28;20221;-59
2022/11/22 11:08:39;;;;;;;0.50;0.50;;;;;;;14.12;66.77;98910.34;5112643;28;20246;-60
2022/11/22 11:11:06;;;;;;;0.40;0.40;;;;;;;14.14;67.27;98898.25;5120345;27;20635;-61
2022/11/22 11:13:37;;;;;;;0.53;0.53;;;;;;;14.21;68.79;98893.59;5124878;28;20191;-61
2022/11/22 11:16:09;;;;;;;0.47;0.47;;;;;;;14.11;68.25;98887.25;5113946;28;20253;-64
2022/11/22 11:18:43;;;;;;;0.40;0.40;;;;;;;13.98;69.66;98873.34;5120135;28;20257;-61
2022/11/22 11:21:12;;;;;;;0.60;0.60;;;;;;;13.90;70.17;98875.47;5107636;28;20207;-61
2022/11/22 11:23:40;;;;;;;0.50;0.50;;;;;;;13.84;71.95;98875.78;5111767;28;20202;-65
2022/11/22 11:26:21;;;;;;;0.55;0.55;;;;;;;13.80;70.96;98882.84;5108297;28;20435;-64
2022/11/22 11:28:49;;;;;;;0.50;0.50;;;;;;;13.88;70.59;98885.03;5111146;28;20678;-64
2022/11/22 11:31:17;;;;;;;0.80;0.80;;;;;;;13.76;70.95;98865.06;5115675;28;20573;-64
2022/11/22 11:33:47;;;;;;;0.67;0.67;;;;;;;13.65;71.33;98853.56;5116974;27;20207;-64
2022/11/22 11:36:17;;;;;;;0.60;0.60;;;;;;;13.75;72.29;98853.94;5112634;28;20210;-63
2022/11/22 11:38:53;;;;;;;0.50;0.50;;;;;;;13.66;73.52;98850.09;5131716;27;20198;-64
2022/11/22 11:41:24;;;;;;;0.60;0.60;;;;;;;13.71;73.23;98856.72;5116202;27;20199;-64
2022/11/22 11:43:52;;;;;;;0.43;0.43;;;;;;;13.71;72.21;98852.41;5113339;28;20202;-64
2022/11/22 11:46:20;;;;;;;1.00;1.00;;;;;;;13.75;72.59;98858.25;5109067;28;20610;-64
2022/11/22 11:48:50;;;;;;;0.43;0.43;;;;;;;13.77;72.16;98866.72;5115860;28;20214;-64
2022/11/22 11:51:22;;;;;;;1.17;1.17;;;;;;;13.85;71.40;98869.75;5108861;28;20222;-65
2022/11/22 11:54:01;;;;;;;0.60;0.60;;;;;;;13.79;71.21;98860.59;5110744;28;20203;-65
2022/11/22 11:56:33;;;;;;;0.80;0.80;;;;;;;13.80;71.43;98858.81;5121855;28;20611;-64
2022/11/22 11:59:05;;;;;;;0.93;0.90;;;;;;;13.76;72.32;98852.19;5121663;27;20257;-64